createdAt,value
2023-03-06T00:03:48.962Z,10.98
2023-03-06T00:24:09.703Z,9.27
2023-03-06T00:44:30.179Z,12.52
2023-03-06T01:04:50.657Z,11.73
2023-03-06T01:25:10.954Z,9.43
2023-03-06T01:45:12.769Z,9.80
2023-03-06T02:05:14.475Z,8.10
2023-03-06T02:25:16.596Z,10.30
2023-03-06T02:45:18.685Z,8.18
2023-03-06T03:05:21.462Z,7.53
2023-03-06T03:25:30.347Z,6.65
2023-03-06T03:45:33.147Z,8.30
2023-03-06T04:05:35.191Z,5.38
2023-03-06T04:25:39.232Z,8.57
2023-03-06T04:45:59.567Z,6.13
2023-03-06T05:06:19.826Z,4.10
2023-03-06T05:26:40.210Z,5.10
2023-03-06T05:47:00.932Z,4.50
2023-03-06T06:07:21.780Z,6.47
2023-03-06T06:27:42.375Z,9.88
2023-03-06T06:47:44.206Z,9.02
2023-03-06T07:07:46.052Z,7.55
2023-03-06T07:27:53.305Z,8.43
2023-03-06T07:47:55.846Z,9.43
2023-03-06T08:07:57.801Z,9.75
2023-03-06T08:27:59.783Z,10.55
2023-03-06T08:48:01.580Z,12.48
2023-03-06T09:08:03.500Z,12.13
2023-03-06T09:28:11.384Z,14.27
2023-03-06T09:48:13.955Z,16.70
2023-03-06T10:08:16.023Z,18.23
2023-03-06T10:28:17.713Z,15.60
2023-03-06T10:48:22.072Z,13.35
2023-03-06T11:08:23.683Z,16.10
2023-03-06T11:28:25.563Z,19.25
2023-03-06T11:48:27.203Z,13.02
2023-03-06T12:08:32.146Z,14.50
2023-03-06T12:28:33.943Z,13.50
2023-03-06T12:48:35.846Z,15.73
2023-03-06T13:08:37.839Z,15.15
2023-03-06T13:28:40.070Z,15.25
2023-03-06T13:48:45.212Z,13.18
2023-03-06T14:08:48.410Z,12.77
2023-03-06T14:28:50.139Z,14.75
2023-03-06T14:48:52.052Z,16.30
2023-03-06T15:08:53.920Z,12.77
2023-03-06T15:28:59.950Z,14.40
2023-03-06T15:49:10.237Z,15.30
2023-03-06T16:09:12.043Z,18.13
2023-03-06T16:29:13.899Z,21.77
2023-03-06T16:49:15.932Z,20.20
2023-03-06T17:09:20.133Z,18.83
2023-03-06T17:29:21.753Z,18.38
2023-03-06T17:49:24.058Z,17.90
2023-03-06T18:09:26.094Z,22.83
2023-03-06T18:29:28.382Z,24.88
2023-03-06T18:49:32.111Z,21.95
2023-03-06T19:09:33.959Z,23.10
2023-03-06T19:29:35.808Z,24.83
2023-03-06T19:49:37.820Z,30.15
2023-03-06T20:09:40.796Z,27.58
2023-03-06T20:51:09.576Z,40.13
2023-03-06T21:11:21.997Z,34.22
2023-03-06T21:31:38.980Z,18.77
2023-03-06T21:51:40.480Z,16.33
2023-03-06T22:11:42.217Z,24.88
2023-03-06T22:31:43.864Z,27.77
2023-03-06T22:51:45.707Z,33.53
2023-03-06T23:11:47.172Z,31.10
2023-03-06T23:32:07.532Z,33.43
2023-03-06T23:52:09.185Z,30.92
